createdAt,value
2023-04-19T00:03:10.706Z,61.60
2023-04-19T00:08:07.731Z,61.46
2023-04-19T00:13:04.181Z,61.78
2023-04-19T00:18:00.697Z,61.66
2023-04-19T00:22:59.054Z,61.64
2023-04-19T00:27:55.531Z,61.86
2023-04-19T00:32:52.212Z,61.81
2023-04-19T00:37:48.792Z,61.88
2023-04-19T00:42:45.302Z,61.93
2023-04-19T00:47:41.882Z,62.08
2023-04-19T00:52:38.417Z,61.87
2023-04-19T00:57:35.431Z,61.92
2023-04-19T01:02:40.638Z,61.89
2023-04-19T01:07:37.225Z,61.70
2023-04-19T01:12:33.721Z,61.47
2023-04-19T01:17:31.832Z,61.85
2023-04-19T01:22:30.009Z,61.64
2023-04-19T01:27:26.545Z,61.65
2023-04-19T01:32:23.074Z,61.03
2023-04-19T01:37:19.619Z,61.20
2023-04-19T01:42:16.133Z,60.89
2023-04-19T01:47:12.766Z,61.05
2023-04-19T01:52:09.408Z,61.17
2023-04-19T01:57:05.896Z,61.28
2023-04-19T02:02:02.439Z,60.98
2023-04-19T02:06:58.938Z,61.16
2023-04-19T02:11:55.452Z,61.39
2023-04-19T02:16:52.134Z,61.43
2023-04-19T02:21:48.638Z,61.85
2023-04-19T02:26:45.293Z,61.72
2023-04-19T02:31:41.828Z,61.87
2023-04-19T02:36:38.244Z,62.02
2023-04-19T02:41:34.738Z,62.57
2023-04-19T02:46:31.556Z,62.31
2023-04-19T02:51:28.088Z,62.12
2023-04-19T02:56:24.629Z,62.78
2023-04-19T03:01:24.217Z,62.60
2023-04-19T03:06:20.866Z,62.34
2023-04-19T03:11:17.424Z,62.17
2023-04-19T03:16:13.948Z,62.46
2023-04-19T03:21:10.483Z,62.84
2023-04-19T03:26:07.011Z,63.11
2023-04-19T03:31:03.637Z,62.44
2023-04-19T03:36:02.996Z,62.66
2023-04-19T03:41:00.159Z,62.81
2023-04-19T03:45:56.723Z,62.76
2023-04-19T03:50:53.535Z,62.87
2023-04-19T03:55:50.032Z,62.71
2023-04-19T04:00:46.501Z,62.95
2023-04-19T04:05:43.024Z,63.03
2023-04-19T04:10:41.567Z,62.27
2023-04-19T04:15:42.535Z,62.90
2023-04-19T04:20:44.449Z,62.95
2023-04-19T04:25:50.492Z,62.99
2023-04-19T04:30:47.551Z,62.80
2023-04-19T04:35:44.200Z,62.94
2023-04-19T04:53:13.818Z,62.53
2023-04-19T04:58:14.527Z,62.61
2023-04-19T05:03:29.352Z,62.79
2023-04-19T05:08:27.075Z,62.24
2023-04-19T05:28:02.953Z,61.58
2023-04-19T07:18:30.998Z,45.30
2023-04-19T07:36:47.850Z,45.05
2023-04-19T07:43:01.273Z,45.18
2023-04-19T07:55:53.887Z,44.95
2023-04-19T08:00:59.030Z,44.74
2023-04-19T08:12:42.761Z,44.99
2023-04-19T08:43:42.105Z,44.34
2023-04-19T09:01:57.640Z,42.32
2023-04-19T10:26:16.896Z,33.52
2023-04-19T11:20:33.398Z,29.84
2023-04-19T11:33:22.314Z,30.17
2023-04-19T11:38:56.484Z,29.58
2023-04-19T11:56:26.714Z,28.33
2023-04-19T12:01:46.106Z,28.89
2023-04-19T12:08:15.490Z,28.71
2023-04-19T12:27:30.911Z,28.14
2023-04-19T12:33:30.535Z,28.71
2023-04-19T12:38:38.021Z,29.32
2023-04-19T12:43:42.256Z,29.71
2023-04-19T12:49:39.633Z,29.52
2023-04-19T12:54:42.122Z,28.42
2023-04-19T13:13:15.564Z,28.88
2023-04-19T13:18:57.826Z,29.32
2023-04-19T13:30:14.611Z,28.90
2023-04-19T13:35:11.195Z,29.04
2023-04-19T13:40:18.642Z,29.17
2023-04-19T13:45:15.994Z,29.02
2023-04-19T13:50:34.411Z,29.01
2023-04-19T14:14:24.836Z,28.88
2023-04-19T14:26:21.965Z,28.92
2023-04-19T14:45:05.867Z,28.54
2023-04-19T14:51:07.213Z,28.22
2023-04-19T15:14:22.689Z,27.29
2023-04-19T15:24:47.725Z,27.06
2023-04-19T15:30:05.281Z,26.62
2023-04-19T15:35:03.976Z,25.88
2023-04-19T15:40:00.610Z,26.00
2023-04-19T15:45:05.415Z,25.86
2023-04-19T15:50:01.984Z,25.86
2023-04-19T15:55:10.623Z,26.02
2023-04-19T16:00:13.104Z,26.41
2023-04-19T16:11:29.505Z,27.72
2023-04-19T16:16:26.978Z,27.58
2023-04-19T16:21:23.544Z,27.67
2023-04-19T16:26:20.034Z,27.97
2023-04-19T16:31:16.733Z,27.85
2023-04-19T16:36:13.222Z,28.19
2023-04-19T16:41:12.042Z,28.31
2023-04-19T16:46:29.630Z,28.19
2023-04-19T16:51:26.849Z,28.41
2023-04-19T16:56:24.196Z,28.88
2023-04-19T17:01:20.660Z,28.87
2023-04-19T17:06:17.422Z,29.57
2023-04-19T17:11:14.484Z,29.57
2023-04-19T17:16:11.121Z,30.11
2023-04-19T17:21:07.752Z,30.41
2023-04-19T17:26:04.385Z,30.66
2023-04-19T17:31:01.083Z,30.89
2023-04-19T17:35:57.751Z,31.39
2023-04-19T17:40:55.524Z,31.60
2023-04-19T17:45:52.138Z,32.17
2023-04-19T17:50:51.605Z,32.47
2023-04-19T17:55:48.269Z,32.47
2023-04-19T18:00:44.799Z,33.04
2023-04-19T18:05:41.619Z,32.87
2023-04-19T18:10:38.125Z,33.24
2023-04-19T18:15:34.674Z,33.50
2023-04-19T18:20:31.275Z,33.50
2023-04-19T18:25:29.043Z,33.83
2023-04-19T18:30:25.576Z,33.82
2023-04-19T18:35:22.075Z,34.38
2023-04-19T18:40:18.898Z,34.21
2023-04-19T18:45:15.266Z,34.69
2023-04-19T18:50:12.012Z,34.95
2023-04-19T18:55:08.835Z,35.30
2023-04-19T19:00:10.831Z,35.29
2023-04-19T19:05:08.377Z,35.85
2023-04-19T19:10:18.349Z,36.20
2023-04-19T19:15:15.438Z,36.45
2023-04-19T19:20:12.016Z,36.52
2023-04-19T19:25:08.905Z,36.45
2023-04-19T19:30:07.504Z,36.65
2023-04-19T19:35:08.133Z,37.20
2023-04-19T19:40:11.037Z,37.23
2023-04-19T19:45:08.998Z,37.74
2023-04-19T19:55:08.483Z,38.35
2023-04-19T20:00:28.036Z,38.33
2023-04-19T20:05:24.694Z,38.72
2023-04-19T20:10:21.739Z,39.41
2023-04-19T20:15:18.248Z,39.38
2023-04-19T20:20:14.868Z,40.41
2023-04-19T20:30:23.433Z,40.76
2023-04-19T20:35:19.926Z,41.17
2023-04-19T20:40:16.562Z,41.74
2023-04-19T20:45:14.238Z,42.55
2023-04-19T20:50:11.272Z,43.18
2023-04-19T20:55:08.015Z,43.81
2023-04-19T21:00:07.888Z,44.12
2023-04-19T21:05:04.597Z,43.75
2023-04-19T21:10:01.098Z,43.36
2023-04-19T21:14:57.555Z,43.13
2023-04-19T21:19:54.047Z,42.58
2023-04-19T21:24:50.852Z,42.53
2023-04-19T21:29:47.305Z,42.12
2023-04-19T21:34:44.008Z,41.81
2023-04-19T21:39:40.436Z,41.64
2023-04-19T21:44:36.943Z,41.28
2023-04-19T21:49:33.521Z,40.94
2023-04-19T21:54:34.028Z,40.28
2023-04-19T21:59:31.221Z,39.90
2023-04-19T22:04:31.303Z,39.29
2023-04-19T22:09:28.551Z,38.60
2023-04-19T22:14:25.031Z,38.34
2023-04-19T22:19:23.192Z,39.20
2023-04-19T22:24:20.417Z,40.34
2023-04-19T22:29:17.462Z,40.19
2023-04-19T22:34:14.085Z,40.00
2023-04-19T22:39:10.524Z,40.30
2023-04-19T22:44:07.103Z,39.47
2023-04-19T22:49:03.532Z,39.36
2023-04-19T22:53:59.983Z,39.83
2023-04-19T22:58:57.291Z,39.14
2023-04-19T23:03:53.797Z,39.68
2023-04-19T23:08:51.105Z,39.63
2023-04-19T23:13:48.745Z,39.45
2023-04-19T23:18:45.925Z,39.81
2023-04-19T23:23:42.374Z,40.08
2023-04-19T23:28:38.873Z,40.03
2023-04-19T23:33:35.493Z,40.42
2023-04-19T23:38:31.931Z,40.13
2023-04-19T23:43:28.409Z,40.31
2023-04-19T23:48:24.833Z,40.79
2023-04-19T23:53:22.292Z,40.90
2023-04-19T23:58:18.731Z,40.67
